Time;durP1;ratioP1;P1;durP2;ratioP2;P2;SDS_P1;SDS_P2;PMS_P1;PMS_P2;Temp;Humidity;BMP_temperature;BMP_pressure;BME280_temperature;BME280_humidity;BME280_pressure;Samples;Min_cycle;Max_cycle;Signal;HPM_P1;HPM_P2
2022/01/28 00:00:49;;;;;;;14.15;2.10;;;;;;;4.13;100.00;102824.03;5112893;28;20062;-50
2022/01/28 00:03:22;;;;;;;11.40;2.47;;;;;;;4.11;100.00;102823.16;5115874;28;20529;-47
2022/01/28 00:05:53;;;;;;;9.50;1.70;;;;;;;4.12;100.00;102819.69;5115928;28;20035;-46
2022/01/28 00:08:25;;;;;;;13.90;1.80;;;;;;;4.09;100.00;102829.25;5115516;28;20043;-52
2022/01/28 00:10:56;;;;;;;11.65;2.47;;;;;;;4.09;100.00;102827.53;5115465;28;20147;-47
2022/01/28 00:13:32;;;;;;;12.13;1.80;;;;;;;4.05;100.00;102831.03;5113816;28;20521;-49
2022/01/28 00:19:31;;;;;;;15.32;1.90;;;;;;;4.06;100.00;102837.94;5114438;28;20097;-49
2022/01/28 00:38:47;;;;;;;16.02;2.17;;;;;;;4.04;100.00;102824.94;5115261;28;20059;-47
2022/01/28 00:41:19;;;;;;;9.98;1.65;;;;;;;4.00;100.00;102830.19;5115308;28;20062;-46
2022/01/28 00:43:48;;;;;;;16.85;1.98;;;;;;;4.01;100.00;102830.16;5114850;27;20048;-48
2022/01/28 00:46:18;;;;;;;10.00;1.60;;;;;;;3.94;100.00;102835.41;5111188;28;20039;-46
2022/01/28 00:48:46;;;;;;;13.02;1.92;;;;;;;3.91;100.00;102830.22;5112099;28;20051;-45
2022/01/28 00:51:15;;;;;;;16.58;2.33;;;;;;;3.89;100.00;102843.25;5113545;28;20519;-49
2022/01/28 00:53:44;;;;;;;16.45;1.65;;;;;;;3.88;100.00;102849.31;5115185;28;20047;-47
2022/01/28 00:56:18;;;;;;;10.82;1.90;;;;;;;3.86;100.00;102856.28;5114817;28;20043;-47
2022/01/28 00:58:49;;;;;;;7.43;1.50;;;;;;;3.82;100.00;102858.03;5111164;28;20078;-47
2022/01/28 01:01:20;;;;;;;14.30;1.73;;;;;;;3.81;100.00;102861.50;5111522;28;20059;-48
2022/01/28 01:03:53;;;;;;;10.93;1.55;;;;;;;3.79;100.00;102862.38;5110872;28;20474;-50
2022/01/28 01:06:23;;;;;;;17.23;2.00;;;;;;;3.80;100.00;102864.97;5110400;28;20047;-46
2022/01/28 01:08:54;;;;;;;14.90;2.10;;;;;;;3.75;100.00;102856.34;5114071;28;20528;-46
2022/01/28 01:11:23;;;;;;;14.93;2.50;;;;;;;3.73;100.00;102855.47;5113169;28;20459;-47
2022/01/28 01:13:55;;;;;;;14.73;1.98;;;;;;;3.71;100.00;102860.69;5110283;28;20501;-50
2022/01/28 01:16:31;;;;;;;19.70;2.20;;;;;;;3.68;100.00;102865.91;5112484;28;20067;-48
2022/01/28 01:19:15;;;;;;;13.40;1.38;;;;;;;3.66;100.00;102872.84;5111086;28;20424;-48
2022/01/28 01:21:45;;;;;;;17.30;1.95;;;;;;;3.64;100.00;102879.81;5111066;28;20093;-46
2022/01/28 01:24:21;;;;;;;13.93;2.47;;;;;;;3.67;100.00;102889.34;5114126;28;20039;-48
2022/01/28 01:26:53;;;;;;;12.23;2.38;;;;;;;3.62;100.00;102898.88;5114365;28;20052;-51
2022/01/28 01:29:23;;;;;;;13.85;2.00;;;;;;;3.62;100.00;102901.50;5114056;28;20054;-47
2022/01/28 01:32:01;;;;;;;12.23;1.75;;;;;;;3.66;100.00;102893.66;5113868;28;20040;-48
2022/01/28 01:34:31;;;;;;;13.38;1.83;;;;;;;3.66;100.00;102898.88;5113945;28;20048;-58
2022/01/28 01:37:01;;;;;;;12.52;1.80;;;;;;;3.66;100.00;102908.41;5111733;28;20039;-57
2022/01/28 01:39:34;;;;;;;17.08;2.78;;;;;;;3.62;100.00;102901.50;5108495;28;20099;-55
2022/01/28 01:42:09;;;;;;;;;;;;;;;3.58;100.00;102897.16;5112417;28;20108;-57
2022/01/28 01:45:09;;;;;;;9.48;1.33;;;;;;;3.52;100.00;102906.72;5113817;28;20337;-57
2022/01/28 01:53:04;;;;;;;13.93;1.80;;;;;;;3.51;100.00;102924.94;5112024;28;20138;-57
2022/01/28 01:55:33;;;;;;;10.48;1.80;;;;;;;3.47;100.00;102929.28;5113655;28;20051;-57
2022/01/28 01:58:01;;;;;;;17.45;2.35;;;;;;;3.52;100.00;102942.28;5113450;28;20050;-58
2022/01/28 02:00:29;;;;;;;12.43;2.15;;;;;;;3.43;100.00;102940.56;5113506;28;20498;-56
2022/01/28 02:02:58;;;;;;;15.75;1.92;;;;;;;3.46;100.00;102953.53;5109882;28;20097;-57
2022/01/28 02:05:26;;;;;;;15.00;2.00;;;;;;;3.41;100.00;102950.09;5109914;28;20039;-57
2022/01/28 02:07:54;;;;;;;13.68;2.00;;;;;;;3.39;100.00;102954.44;5110118;28;20489;-56
2022/01/28 02:10:23;;;;;;;12.27;1.95;;;;;;;3.40;100.00;102956.16;5109528;28;20051;-56
2022/01/28 02:12:53;;;;;;;13.52;1.58;;;;;;;3.36;100.00;102957.91;5111644;28;20063;-57
2022/01/28 02:15:21;;;;;;;10.63;1.50;;;;;;;3.40;100.00;102958.78;5113283;28;20112;-56
2022/01/28 02:17:49;;;;;;;10.35;1.77;;;;;;;3.42;100.00;102951.81;5113131;28;20608;-56
2022/01/28 02:20:24;;;;;;;14.00;1.92;;;;;;;3.38;100.00;102955.28;5113440;28;20051;-56
2022/01/28 02:22:53;;;;;;;14.85;1.88;;;;;;;3.40;100.00;102953.56;5109269;28;20097;-56
2022/01/28 02:25:24;;;;;;;8.65;2.20;;;;;;;3.35;100.00;102950.09;5109109;28;20478;-56
2022/01/28 02:27:53;;;;;;;13.95;2.25;;;;;;;3.40;100.00;102955.31;5112209;28;20048;-55
2022/01/28 02:30:21;;;;;;;9.73;2.05;;;;;;;3.43;100.00;102958.75;5109035;28;20461;-56
2022/01/28 02:32:50;;;;;;;9.43;1.63;;;;;;;3.39;100.00;102962.25;5110102;28;20140;-56
2022/01/28 02:35:20;;;;;;;15.15;1.95;;;;;;;3.44;100.00;102962.25;5111194;28;20112;-54
2022/01/28 02:37:48;;;;;;;14.30;1.83;;;;;;;3.40;100.00;102963.97;5107818;28;20051;-56
2022/01/28 02:40:16;;;;;;;12.90;2.13;;;;;;;3.41;100.00;102965.72;5111514;28;20051;-56
2022/01/28 02:43:03;;;;;;;9.35;2.17;;;;;;;3.43;100.00;102963.13;5112312;28;20052;-57
2022/01/28 02:45:34;;;;;;;9.98;1.75;;;;;;;3.36;100.00;102968.31;5112754;28;20050;-57
2022/01/28 02:48:07;;;;;;;15.00;1.65;;;;;;;3.35;100.00;102966.59;5110425;28;20078;-55
2022/01/28 02:50:44;;;;;;;14.45;1.25;;;;;;;3.39;100.00;102972.63;5109018;28;20044;-56
2022/01/28 02:53:22;;;;;;;11.45;1.58;;;;;;;3.37;100.00;102974.41;5112469;28;20117;-54
2022/01/28 02:55:58;;;;;;;12.85;2.70;;;;;;;3.41;100.00;102980.44;5112673;28;20136;-56
2022/01/28 02:58:27;;;;;;;14.38;3.33;;;;;;;3.44;100.00;102980.47;5112710;28;20043;-55
2022/01/28 03:01:01;;;;;;;14.07;1.50;;;;;;;3.46;100.00;102983.91;5111204;28;20043;-56
2022/01/28 03:03:33;;;;;;;13.40;2.33;;;;;;;3.45;100.00;102975.25;5112469;28;20067;-56
2022/01/28 03:06:03;;;;;;;8.73;1.50;;;;;;;3.43;100.00;102963.97;5108934;28;20122;-57
2022/01/28 03:08:33;;;;;;;17.73;1.90;;;;;;;3.44;100.00;102980.47;5108496;28;20066;-56
2022/01/28 03:11:27;;;;;;;13.77;1.80;;;;;;;3.35;100.00;102979.59;5112464;28;20074;-56
2022/01/28 03:14:14;;;;;;;12.00;1.58;;;;;;;3.37;100.00;102984.81;5112364;28;20040;-55
2022/01/28 03:17:04;;;;;;;9.82;1.85;;;;;;;3.32;100.00;102987.38;5112404;28;20549;-56
2022/01/28 03:19:44;;;;;;;15.05;2.30;;;;;;;3.34;100.00;103001.28;5111110;28;20090;-49
2022/01/28 03:22:17;;;;;;;9.20;1.52;;;;;;;3.31;100.00;102996.09;5112267;28;20055;-47
2022/01/28 03:24:50;;;;;;;;;;;;;;;3.34;100.00;103003.00;5112618;28;20039;-51
2022/01/28 03:27:38;;;;;;;12.77;1.50;;;;;;;3.40;100.00;103000.41;5109305;28;20386;-49
2022/01/28 03:30:09;;;;;;;17.65;2.60;;;;;;;3.36;100.00;102993.47;5110765;28;20127;-49
2022/01/28 03:32:47;;;;;;;11.45;1.60;;;;;;;3.36;100.00;102990.88;5112105;28;20052;-47
2022/01/28 03:35:29;;;;;;;16.20;2.10;;;;;;;3.34;100.00;102997.78;5112342;28;20387;-46
2022/01/28 03:38:05;;;;;;;12.00;1.85;;;;;;;3.30;100.00;102999.53;5112264;28;20443;-50
2022/01/28 03:40:42;;;;;;;8.15;1.25;;;;;;;3.36;100.00;103003.88;5112100;28;20097;-47
2022/01/28 03:43:11;;;;;;;10.65;2.05;;;;;;;3.27;100.00;103009.06;5108385;28;20060;-46
2022/01/28 03:45:51;;;;;;;11.98;1.45;;;;;;;3.25;100.00;103003.00;5109401;28;20367;-49
2022/01/28 03:48:26;;;;;;;11.47;1.70;;;;;;;3.24;100.00;103009.94;5109672;28;20046;-47
2022/01/28 03:50:54;;;;;;;10.33;1.73;;;;;;;3.23;100.00;103016.00;5108361;28;20039;-49
2022/01/28 03:53:24;;;;;;;14.02;2.30;;;;;;;3.20;100.00;103019.47;5111394;28;21087;-50
2022/01/28 03:55:58;;;;;;;12.23;1.63;;;;;;;3.18;100.00;103034.19;5112111;28;20521;-49
2022/01/28 03:58:29;;;;;;;16.35;1.27;;;;;;;3.17;100.00;103029.84;5110222;28;20379;-48
2022/01/28 04:00:58;;;;;;;10.73;1.40;;;;;;;3.19;100.00;103035.94;5107790;28;20048;-50
2022/01/28 04:03:48;;;;;;;13.73;2.92;;;;;;;3.17;100.00;103037.66;5110465;28;20436;-49
2022/01/28 04:12:02;;;;;;;10.88;1.65;;;;;;;3.02;100.00;103053.25;5114419;27;20140;-48
2022/01/28 04:14:43;;;;;;;9.93;2.45;;;;;;;2.95;100.00;103054.13;5115634;28;20051;-49
2022/01/28 04:17:24;;;;;;;13.05;1.65;;;;;;;2.94;100.00;103062.78;5115488;28;20148;-46
2022/01/28 04:19:55;;;;;;;10.27;1.75;;;;;;;2.91;100.00;103062.78;5111946;28;20513;-49
2022/01/28 04:22:27;;;;;;;11.82;1.35;;;;;;;2.86;100.00;103061.03;5109319;28;20054;-50
2022/01/28 04:25:05;;;;;;;9.10;1.70;;;;;;;2.87;100.00;103064.47;5115253;28;20051;-48
2022/01/28 04:27:36;;;;;;;8.32;1.13;;;;;;;2.82;100.00;103071.41;5112865;28;20051;-46
2022/01/28 04:30:06;;;;;;;9.30;1.30;;;;;;;2.74;100.00;103075.69;5111439;28;20055;-48
2022/01/28 04:32:38;;;;;;;9.60;1.55;;;;;;;2.73;100.00;103073.97;5113423;27;20053;-51
2022/01/28 04:35:08;;;;;;;11.07;1.55;;;;;;;2.72;100.00;103069.66;5115152;28;20046;-48
2022/01/28 04:37:44;;;;;;;9.32;1.67;;;;;;;2.71;100.00;103066.16;5115121;28;20047;-49
2022/01/28 04:40:16;;;;;;;17.52;1.77;;;;;;;2.74;100.00;103066.19;5114985;28;20505;-49
2022/01/28 04:43:01;;;;;;;15.13;2.40;;;;;;;2.81;100.00;103067.06;5114975;28;20055;-48
2022/01/28 04:45:37;;;;;;;12.43;2.13;;;;;;;2.83;100.00;103067.94;5115001;28;20085;-52
2022/01/28 04:48:15;;;;;;;11.90;1.90;;;;;;;2.82;100.00;103069.69;5112776;28;20403;-48
2022/01/28 04:50:57;;;;;;;9.70;1.40;;;;;;;2.79;100.00;103074.00;5109778;28;20100;-47
2022/01/28 04:56:20;;;;;;;12.57;1.60;;;;;;;2.74;100.00;103088.69;5113741;28;20098;-48
2022/01/28 04:59:08;;;;;;;10.80;1.83;;;;;;;2.74;100.00;103092.19;5114734;28;20371;-56
2022/01/28 05:04:42;;;;;;;16.15;1.75;;;;;;;2.75;100.00;103106.88;5102616;28;20051;-56
2022/01/28 05:07:30;;;;;;;9.68;1.67;;;;;;;2.74;100.00;103104.28;5114553;28;20055;-57
2022/01/28 05:26:55;;;;;;;12.55;1.88;;;;;;;2.65;100.00;103128.53;5114442;28;20046;-56
2022/01/28 05:29:30;;;;;;;13.70;1.80;;;;;;;2.63;100.00;103125.91;5113710;28;20051;-55
2022/01/28 05:32:00;;;;;;;8.98;2.03;;;;;;;2.67;100.00;103129.38;5108473;28;20073;-54
2022/01/28 05:34:28;;;;;;;9.93;1.67;;;;;;;2.59;100.00;103120.69;5110931;28;20092;-55
2022/01/28 05:36:57;;;;;;;12.07;1.90;;;;;;;2.58;100.00;103129.31;5113760;28;20051;-56
2022/01/28 05:39:25;;;;;;;11.70;1.65;;;;;;;2.52;100.00;103131.06;5113742;28;20040;-56
2022/01/28 05:41:53;;;;;;;14.93;1.70;;;;;;;2.51;100.00;103141.44;5113732;28;20056;-55
2022/01/28 05:44:22;;;;;;;19.08;1.70;;;;;;;2.49;100.00;103145.75;5113868;28;20044;-56
2022/01/28 05:46:52;;;;;;;18.40;2.15;;;;;;;2.48;100.00;103146.59;5112278;28;20104;-56
2022/01/28 05:49:20;;;;;;;8.63;1.70;;;;;;;2.46;100.00;103157.00;5113564;28;20043;-55
2022/01/28 05:51:49;;;;;;;11.82;1.77;;;;;;;2.46;100.00;103166.53;5113813;28;20453;-56
2022/01/28 05:54:17;;;;;;;12.57;1.50;;;;;;;2.42;100.00;103173.41;5113638;28;20050;-55
2022/01/28 05:56:45;;;;;;;18.00;1.75;;;;;;;2.39;100.00;103169.91;5113560;28;20374;-55
2022/01/28 05:59:16;;;;;;;9.27;1.85;;;;;;;2.32;100.00;103174.22;5113627;28;20380;-55
2022/01/28 06:01:44;;;;;;;14.63;2.00;;;;;;;2.36;100.00;103178.59;5113383;28;20048;-56
2022/01/28 06:04:16;;;;;;;14.13;1.60;;;;;;;2.25;100.00;103175.03;5113369;28;20044;-57
2022/01/28 06:06:45;;;;;;;6.82;1.70;;;;;;;2.23;100.00;103179.34;5113372;28;20502;-56
2022/01/28 06:09:13;;;;;;;14.38;2.35;;;;;;;2.15;100.00;103185.34;5113355;28;20436;-57
2022/01/28 06:11:43;;;;;;;10.23;1.45;;;;;;;2.16;100.00;103186.22;5113342;28;20044;-57
2022/01/28 06:14:11;;;;;;;10.73;1.35;;;;;;;2.14;100.00;103186.22;5113160;28;20071;-56
2022/01/28 06:16:39;;;;;;;13.32;1.95;;;;;;;2.16;100.00;103199.22;5113024;28;20051;-57
2022/01/28 06:19:07;;;;;;;11.50;1.77;;;;;;;2.17;100.00;103199.22;5112974;28;20032;-57
2022/01/28 06:21:37;;;;;;;12.95;1.63;;;;;;;2.15;100.00;103211.31;5112966;28;20668;-56
2022/01/28 06:24:06;;;;;;;14.23;1.90;;;;;;;2.19;100.00;103201.81;5113091;28;20039;-58
2022/01/28 06:26:34;;;;;;;12.95;1.83;;;;;;;2.21;100.00;103210.50;5113036;28;20060;-57
2022/01/28 06:29:02;;;;;;;14.63;2.80;;;;;;;2.24;100.00;103218.31;5112707;28;20047;-56
2022/01/28 06:31:30;;;;;;;14.45;2.20;;;;;;;2.28;100.00;103232.19;5112595;28;20039;-57
2022/01/28 06:33:58;;;;;;;9.45;1.45;;;;;;;2.29;100.00;103239.13;5112617;28;20041;-58
2022/01/28 06:36:27;;;;;;;16.45;2.00;;;;;;;2.27;100.00;103241.69;5112954;28;20108;-57
2022/01/28 06:38:56;;;;;;;13.27;1.98;;;;;;;2.30;100.00;103253.84;5112659;28;20062;-56
2022/01/28 06:41:24;;;;;;;11.00;2.20;;;;;;;2.31;100.00;103253.84;5112928;28;20510;-56
2022/01/28 06:43:52;;;;;;;10.30;1.60;;;;;;;2.36;100.00;103246.97;5112863;28;20039;-57
2022/01/28 06:46:20;;;;;;;10.20;2.05;;;;;;;2.40;100.00;103265.16;5112743;28;20071;-57
2022/01/28 06:48:48;;;;;;;11.15;2.08;;;;;;;2.40;100.00;103268.66;5112877;28;20752;-56
2022/01/28 06:51:17;;;;;;;15.57;2.00;;;;;;;2.42;100.00;103276.47;5112548;28;20046;-56
2022/01/28 06:53:45;;;;;;;15.20;2.30;;;;;;;2.43;100.00;103278.22;5112134;28;20051;-57
2022/01/28 06:56:14;;;;;;;11.30;2.45;;;;;;;2.43;100.00;103275.59;5112676;28;20063;-56
2022/01/28 06:58:42;;;;;;;14.40;1.80;;;;;;;2.42;100.00;103286.84;5112567;28;20047;-56
2022/01/28 07:01:10;;;;;;;12.40;1.85;;;;;;;2.43;100.00;103286.84;5112741;28;20047;-57
2022/01/28 07:03:39;;;;;;;12.07;2.03;;;;;;;2.45;100.00;103292.91;5112604;28;20043;-56
2022/01/28 07:06:07;;;;;;;14.15;2.10;;;;;;;2.45;100.00;103299.84;5112745;28;20059;-56
2022/01/28 07:08:35;;;;;;;13.02;1.90;;;;;;;2.41;100.00;103304.13;5111351;28;20040;-57
2022/01/28 07:11:03;;;;;;;12.95;2.20;;;;;;;2.42;100.00;103303.28;5112561;28;20449;-57
2022/01/28 07:13:32;;;;;;;7.93;1.70;;;;;;;2.42;100.00;103303.28;5112558;28;20048;-57
2022/01/28 07:16:00;;;;;;;14.82;2.17;;;;;;;2.43;100.00;103306.78;5112464;28;20528;-57
2022/01/28 07:18:29;;;;;;;12.15;1.85;;;;;;;2.43;100.00;103315.44;5112546;28;20058;-56
2022/01/28 07:20:57;;;;;;;11.48;1.52;;;;;;;2.45;100.00;103312.84;5112628;28;20058;-56
2022/01/28 07:23:25;;;;;;;10.23;1.90;;;;;;;2.44;100.00;103305.91;5112537;28;20122;-57
2022/01/28 07:25:53;;;;;;;9.60;1.75;;;;;;;2.48;100.00;103305.06;5112355;28;20109;-57
2022/01/28 07:28:22;;;;;;;16.15;2.28;;;;;;;2.46;100.00;103307.66;5112286;28;20048;-57
2022/01/28 07:30:52;;;;;;;10.45;1.70;;;;;;;2.47;100.00;103314.59;5112537;28;20051;-56
2022/01/28 07:33:21;;;;;;;12.38;3.03;;;;;;;2.48;100.00;103318.06;5111040;28;20113;-57
2022/01/28 07:35:49;;;;;;;12.68;2.20;;;;;;;2.46;100.00;103323.25;5112259;28;20048;-57
2022/01/28 07:38:17;;;;;;;14.45;1.95;;;;;;;2.47;100.00;103317.19;5112179;28;20040;-56
2022/01/28 07:40:45;;;;;;;8.82;2.65;;;;;;;2.48;100.00;103318.06;5114154;28;20047;-56
2022/01/28 07:43:13;;;;;;;6.85;2.03;;;;;;;2.48;100.00;103318.06;5116024;28;20056;-57
2022/01/28 07:45:42;;;;;;;12.18;2.90;;;;;;;2.46;100.00;103318.03;5116001;28;20054;-56
2022/01/28 07:48:11;;;;;;;14.70;2.10;;;;;;;2.46;100.00;103327.56;5115998;28;20052;-56
2022/01/28 07:50:39;;;;;;;15.25;2.20;;;;;;;2.49;100.00;103328.44;5115704;28;20040;-57
2022/01/28 07:53:08;;;;;;;11.57;2.15;;;;;;;2.48;100.00;103331.94;5115620;28;20054;-57
2022/01/28 07:55:36;;;;;;;12.35;2.20;;;;;;;2.49;100.00;103338.84;5115903;28;20043;-57
2022/01/28 07:58:04;;;;;;;12.73;2.10;;;;;;;2.51;100.00;103331.94;5115950;27;20068;-57
2022/01/28 08:00:33;;;;;;;14.93;2.15;;;;;;;2.53;100.00;103335.41;5115874;28;20498;-55
2022/01/28 08:03:01;;;;;;;12.88;2.10;;;;;;;2.54;100.00;103344.09;5116305;28;20521;-57
2022/01/28 08:05:31;;;;;;;10.25;1.98;;;;;;;2.51;100.00;103355.34;5115791;28;20043;-57
2022/01/28 08:08:04;;;;;;;13.95;1.90;;;;;;;2.52;100.00;103367.47;5115742;28;20043;-57
2022/01/28 08:10:33;;;;;;;8.38;1.85;;;;;;;2.53;100.00;103371.78;5115444;28;20053;-57
2022/01/28 08:13:03;;;;;;;9.85;1.95;;;;;;;2.54;100.00;103368.34;5115116;28;20044;-56
2022/01/28 08:15:31;;;;;;;13.00;1.70;;;;;;;2.54;100.00;103365.75;5115518;28;20074;-58
2022/01/28 08:17:59;;;;;;;13.52;1.95;;;;;;;2.56;100.00;103365.75;5115442;28;20051;-57
2022/01/28 08:20:28;;;;;;;8.82;2.53;;;;;;;2.59;100.00;103365.81;5115371;28;20093;-56
2022/01/28 08:22:58;;;;;;;11.20;2.17;;;;;;;2.56;100.00;103373.53;5115389;28;20048;-57
2022/01/28 08:25:31;;;;;;;9.73;1.88;;;;;;;2.57;100.00;103380.50;5115635;28;20040;-57
2022/01/28 08:28:00;;;;;;;11.93;2.13;;;;;;;2.57;100.00;103380.50;5115297;28;20047;-57
2022/01/28 08:30:29;;;;;;;11.32;2.10;;;;;;;2.74;100.00;103383.25;5115316;28;20074;-57
2022/01/28 08:32:57;;;;;;;10.18;2.42;;;;;;;2.88;100.00;103371.22;5115140;28;20381;-54
2022/01/28 08:35:31;;;;;;;9.65;2.20;;;;;;;2.95;100.00;103373.88;5115124;28;20455;-57
2022/01/28 08:38:14;;;;;;;16.13;2.10;;;;;;;3.14;100.00;103361.88;5113793;28;20070;-58
2022/01/28 08:40:42;;;;;;;8.18;1.83;;;;;;;3.27;100.00;103381.00;5115017;28;20050;-58
2022/01/28 08:43:10;;;;;;;12.65;2.17;;;;;;;3.45;100.00;103388.03;5115049;28;20051;-56
2022/01/28 08:45:38;;;;;;;9.77;2.03;;;;;;;3.58;100.00;103383.78;5114989;28;20131;-54
2022/01/28 08:48:06;;;;;;;11.65;1.98;;;;;;;3.73;100.00;103389.91;5114970;28;20035;-55
2022/01/28 08:50:35;;;;;;;14.70;2.20;;;;;;;3.97;100.00;103395.25;5114527;28;20039;-54
2022/01/28 08:53:03;;;;;;;12.90;1.88;;;;;;;4.03;100.00;103388.28;5114918;28;20079;-57
2022/01/28 08:55:33;;;;;;;12.05;2.25;;;;;;;4.03;100.00;103379.63;5113548;28;20052;-56
2022/01/28 08:58:02;;;;;;;12.40;2.50;;;;;;;4.12;100.00;103382.25;5115093;28;20586;-57
2022/01/28 09:00:30;;;;;;;14.32;2.42;;;;;;;4.21;100.00;103382.28;5114575;28;20043;-55
2022/01/28 09:02:58;;;;;;;12.05;2.85;;;;;;;4.39;100.00;103381.44;5114566;28;20094;-56
2022/01/28 09:05:28;;;;;;;16.30;2.72;;;;;;;4.45;100.00;103377.97;5114610;28;20052;-56
2022/01/28 09:07:57;;;;;;;12.32;2.90;;;;;;;4.55;100.00;103379.72;5114302;28;20043;-56
2022/01/28 09:10:29;;;;;;;13.93;2.40;;;;;;;4.48;100.00;103393.59;5112741;28;20043;-56
2022/01/28 09:13:22;;;;;;;17.77;2.25;;;;;;;4.51;100.00;103393.63;5114046;28;20058;-57
2022/01/28 09:15:51;;;;;;;9.10;1.90;;;;;;;4.60;100.00;103397.97;5114448;28;20091;-56
2022/01/28 09:18:20;;;;;;;12.52;2.28;;;;;;;4.63;100.00;103403.16;5114715;28;20066;-56
2022/01/28 09:20:49;;;;;;;10.35;2.15;;;;;;;4.72;100.00;103400.56;5114204;28;20463;-57
2022/01/28 09:23:17;;;;;;;12.00;2.53;;;;;;;4.88;100.00;103406.66;5110496;28;20501;-57
2022/01/28 09:25:45;;;;;;;14.57;2.40;;;;;;;4.99;100.00;103405.78;5102165;28;20115;-57
2022/01/28 09:28:15;;;;;;;11.82;2.35;;;;;;;5.16;100.00;103405.75;5104683;28;20529;-56
2022/01/28 09:30:43;;;;;;;11.63;2.28;;;;;;;5.33;100.00;103413.56;5104704;28;20083;-55
2022/01/28 09:33:12;;;;;;;12.90;2.67;;;;;;;5.43;100.00;103410.06;5108835;28;20048;-56
2022/01/28 09:35:41;;;;;;;12.57;2.53;;;;;;;5.52;100.00;103407.44;5108790;28;20056;-57
2022/01/28 09:38:09;;;;;;;12.35;2.15;;;;;;;5.56;100.00;103419.59;5103811;28;20149;-57
2022/01/28 09:40:38;;;;;;;12.90;2.03;;;;;;;5.96;100.00;103415.06;5112845;28;20047;-57
2022/01/28 09:43:08;;;;;;;11.80;2.10;;;;;;;6.14;100.00;103417.63;5101666;28;20047;-57
2022/01/28 09:45:37;;;;;;;13.15;2.05;;;;;;;6.43;99.74;103422.72;5107442;28;20092;-57
2022/01/28 09:48:06;;;;;;;14.98;2.42;;;;;;;6.38;98.11;103428.81;5102296;28;20108;-56
2022/01/28 09:50:35;;;;;;;9.52;1.98;;;;;;;6.32;98.89;103439.31;5106983;28;20517;-56
2022/01/28 09:53:03;;;;;;;11.90;1.83;;;;;;;6.16;98.36;103426.34;5110019;28;20055;-57
2022/01/28 09:55:32;;;;;;;15.15;2.55;;;;;;;6.13;98.33;103436.81;5106325;28;20039;-56
2022/01/28 09:58:01;;;;;;;11.70;3.03;;;;;;;6.13;98.15;103428.09;5103703;28;20036;-56
2022/01/28 10:00:31;;;;;;;9.35;1.98;;;;;;;6.41;98.76;103434.91;5106611;28;20077;-47
2022/01/28 10:03:03;;;;;;;10.40;2.20;;;;;;;6.61;96.81;103439.13;5106852;28;20510;-50
2022/01/28 10:05:34;;;;;;;17.17;2.30;;;;;;;7.14;96.86;103431.72;5105400;28;20100;-48
2022/01/28 10:08:12;;;;;;;10.32;1.77;;;;;;;7.31;94.82;103428.94;5104137;28;20054;-47
2022/01/28 10:10:59;;;;;;;13.95;3.33;;;;;;;7.59;93.07;103431.25;5106156;28;20440;-46
2022/01/28 10:13:34;;;;;;;14.50;2.22;;;;;;;7.97;91.56;103435.16;5096193;28;20039;-48
2022/01/28 10:16:11;;;;;;;15.77;2.65;;;;;;;8.29;88.37;103432.13;5103730;28;20051;-47
2022/01/28 10:18:44;;;;;;;10.80;2.00;;;;;;;8.50;86.06;103429.25;5099319;28;20082;-48
2022/01/28 10:21:21;;;;;;;11.77;1.90;;;;;;;8.88;85.43;103431.25;5110036;28;20032;-49
2022/01/28 10:24:09;;;;;;;15.07;1.88;;;;;;;8.69;81.08;103435.06;5095314;28;20040;-49
2022/01/28 10:26:40;;;;;;;10.88;1.92;;;;;;;9.23;83.25;103434.13;5089391;28;20054;-48
2022/01/28 10:29:11;;;;;;;19.15;2.63;;;;;;;8.94;80.88;103428.53;5110097;28;20036;-50
2022/01/28 10:31:52;;;;;;;12.77;2.20;;;;;;;9.54;81.76;103425.69;5104094;28;20107;-46
2022/01/28 10:34:29;;;;;;;11.13;1.83;;;;;;;9.84;79.96;103418.94;5102880;28;20521;-44
2022/01/28 10:37:16;;;;;;;12.43;1.80;;;;;;;10.25;77.31;103429.44;5110963;28;20039;-43
2022/01/28 10:39:47;;;;;;;12.60;2.05;;;;;;;10.41;75.82;103441.38;5097148;28;20055;-45
2022/01/28 10:42:35;;;;;;;13.52;2.20;;;;;;;9.88;75.29;103440.78;5102614;28;20060;-57
2022/01/28 10:45:10;;;;;;;11.98;1.90;;;;;;;9.89;74.22;103443.38;5111041;28;20047;-57
2022/01/28 10:47:41;;;;;;;10.77;1.80;;;;;;;10.13;74.12;103444.59;5098843;28;20051;-57
2022/01/28 10:50:23;;;;;;;13.05;2.33;;;;;;;9.61;74.18;103438.69;5109283;28;20043;-57
2022/01/28 10:53:03;;;;;;;11.43;2.33;;;;;;;9.83;74.33;103440.88;5105157;28;20043;-56
2022/01/28 10:55:33;;;;;;;15.43;2.05;;;;;;;10.52;76.34;103440.28;5102912;28;20491;-57
2022/01/28 10:58:03;;;;;;;14.15;2.05;;;;;;;10.58;70.44;103442.75;5107254;28;20048;-56
2022/01/28 11:00:33;;;;;;;12.55;2.05;;;;;;;9.53;71.01;103430.09;5100658;28;20041;-57
2022/01/28 11:03:03;;;;;;;12.05;1.98;;;;;;;9.26;70.85;103440.22;5106382;28;20047;-57
2022/01/28 11:05:35;;;;;;;13.18;2.25;;;;;;;9.04;71.02;103441.47;5100224;28;20474;-57
2022/01/28 11:08:06;;;;;;;14.70;2.60;;;;;;;8.75;72.54;103433.22;5106717;28;20063;-57
2022/01/28 11:10:35;;;;;;;15.00;1.67;;;;;;;8.65;71.76;103425.53;5106487;28;20067;-57
2022/01/28 11:13:03;;;;;;;13.52;2.22;;;;;;;8.77;72.58;103423.53;5104552;28;20040;-57
2022/01/28 11:15:33;;;;;;;8.25;1.52;;;;;;;8.85;72.56;103402.44;5096880;28;20056;-56
2022/01/28 11:18:04;;;;;;;11.48;1.60;;;;;;;8.82;73.65;103399.00;5100062;28;20497;-57
2022/01/28 11:20:40;;;;;;;13.52;1.98;;;;;;;8.42;73.11;103400.47;5108239;28;20059;-57
2022/01/28 11:23:22;;;;;;;10.77;1.85;;;;;;;8.40;73.62;103405.75;5101109;28;20047;-56
2022/01/28 11:26:06;;;;;;;12.18;1.80;;;;;;;8.39;74.25;103400.53;5105408;28;20054;-56
2022/01/28 11:28:41;;;;;;;14.02;1.70;;;;;;;8.35;74.33;103393.59;5111177;28;20054;-55
2022/01/28 11:31:10;;;;;;;16.75;1.80;;;;;;;8.22;74.75;103383.28;5096944;28;20036;-57
2022/01/28 11:33:48;;;;;;;15.95;2.53;;;;;;;8.07;73.46;103393.97;5111562;28;20054;-56
2022/01/28 11:36:32;;;;;;;16.25;2.13;;;;;;;8.03;73.75;103392.28;5107908;28;20044;-58
2022/01/28 11:39:07;;;;;;;11.57;1.40;;;;;;;8.13;75.00;103383.41;5112258;28;20135;-57
2022/01/28 11:41:36;;;;;;;14.77;1.85;;;;;;;7.99;72.45;103373.13;5104671;28;20099;-57
2022/01/28 11:44:05;;;;;;;12.13;1.63;;;;;;;7.93;73.85;103384.56;5111629;28;20040;-57
2022/01/28 11:46:38;;;;;;;12.77;1.80;;;;;;;7.93;73.49;103374.09;5109499;28;20097;-58
2022/01/28 11:49:22;;;;;;;10.18;1.85;;;;;;;8.07;74.84;103379.13;5106513;28;20043;-57
2022/01/28 11:51:52;;;;;;;14.45;1.58;;;;;;;8.13;73.74;103372.94;5106067;28;20051;-57
2022/01/28 11:54:23;;;;;;;10.07;1.52;;;;;;;8.09;73.11;103371.25;5114391;28;20047;-57
2022/01/28 11:57:14;;;;;;;12.75;1.98;;;;;;;7.87;71.77;103382.03;5113721;28;20058;-57
2022/01/28 11:59:42;;;;;;;11.77;1.70;;;;;;;7.91;73.58;103381.09;5115906;28;20050;-57
2022/01/28 12:02:17;;;;;;;12.13;1.50;;;;;;;8.03;72.80;103374.81;5115804;28;20490;-57
2022/01/28 12:04:46;;;;;;;12.65;1.70;;;;;;;7.95;71.91;103372.31;5116158;28;20075;-58
2022/01/28 12:07:19;;;;;;;14.45;2.25;;;;;;;8.14;73.30;103372.06;5115385;28;20051;-57
2022/01/28 12:09:49;;;;;;;14.90;1.60;;;;;;;8.25;73.54;103367.50;5115460;28;20047;-57
2022/01/28 12:12:25;;;;;;;5.40;1.23;;;;;;;8.16;72.61;103366.78;5115686;28;20044;-57
2022/01/28 12:15:04;;;;;;;9.55;1.42;;;;;;;8.18;73.33;103365.88;5115501;28;20128;-57
2022/01/28 12:17:43;;;;;;;12.93;1.73;;;;;;;8.27;73.40;103360.47;5115573;27;20097;-58
2022/01/28 12:20:46;;;;;;;9.05;1.80;;;;;;;8.23;72.96;103355.31;5115814;28;20422;-57
2022/01/28 12:23:39;;;;;;;6.30;1.27;;;;;;;8.22;73.26;103346.59;5115392;28;20039;-57
2022/01/28 12:26:08;;;;;;;8.55;1.40;;;;;;;8.20;72.79;103344.88;5114408;28;20496;-55
2022/01/28 12:28:44;;;;;;;10.30;1.45;;;;;;;8.33;73.37;103332.44;5115180;28;20051;-57
2022/01/28 12:31:15;;;;;;;10.77;1.30;;;;;;;8.41;73.11;103331.44;5115585;28;20065;-58
2022/01/28 12:33:46;;;;;;;8.75;1.52;;;;;;;8.37;73.03;103328.88;5115350;28;20085;-58
2022/01/28 12:36:18;;;;;;;6.03;1.52;;;;;;;8.17;71.77;103331.81;5113943;28;20055;-58
2022/01/28 12:39:06;;;;;;;10.10;1.40;;;;;;;8.37;73.17;103323.63;5115028;28;20543;-57